createdAt,value
2022-07-28T00:02:05.032Z,21.50
2022-07-28T00:04:34.326Z,21.40
2022-07-28T00:07:03.328Z,21.40
2022-07-28T00:09:33.386Z,21.40
2022-07-28T00:12:02.192Z,21.40
2022-07-28T00:14:31.328Z,21.40
2022-07-28T00:17:00.601Z,21.40
2022-07-28T00:19:29.329Z,21.30
2022-07-28T00:21:57.971Z,21.30
2022-07-28T00:24:26.651Z,21.30
2022-07-28T00:26:56.642Z,21.30
2022-07-28T00:29:25.340Z,21.20
2022-07-28T00:32:13.991Z,21.20
2022-07-28T00:34:42.978Z,21.10
2022-07-28T00:37:14.550Z,21.20
2022-07-28T00:39:44.016Z,21.10
2022-07-28T00:42:14.105Z,21.10
2022-07-28T00:44:42.735Z,21.00
2022-07-28T00:47:12.045Z,21.00
2022-07-28T00:49:41.132Z,21.00
2022-07-28T00:52:11.203Z,21.00
2022-07-28T00:54:40.155Z,20.90
2022-07-28T00:57:08.895Z,20.90
2022-07-28T00:59:38.982Z,20.90
2022-07-28T01:02:08.042Z,20.90
2022-07-28T01:04:36.935Z,20.90
2022-07-28T01:07:22.688Z,20.90
2022-07-28T01:10:00.750Z,20.80
2022-07-28T01:12:47.189Z,20.90
2022-07-28T01:15:25.788Z,20.80
2022-07-28T01:18:04.271Z,20.80
2022-07-28T01:20:40.143Z,20.80
2022-07-28T01:23:31.340Z,20.80
2022-07-28T01:26:21.076Z,20.80
2022-07-28T01:29:04.753Z,20.70
2022-07-28T01:31:40.989Z,20.70
2022-07-28T01:34:16.764Z,20.70
2022-07-28T01:36:52.216Z,20.70
2022-07-28T01:39:23.500Z,20.70
2022-07-28T01:41:54.815Z,20.70
2022-07-28T01:44:26.259Z,20.70
2022-07-28T01:46:59.094Z,20.70
2022-07-28T01:49:29.510Z,20.60
2022-07-28T01:51:58.977Z,20.60
2022-07-28T01:54:28.946Z,20.60
2022-07-28T01:56:58.785Z,20.60
2022-07-28T01:59:29.582Z,20.50
2022-07-28T02:02:03.859Z,20.50
2022-07-28T02:04:35.227Z,20.50
2022-07-28T02:07:05.534Z,20.50
2022-07-28T02:09:36.294Z,20.40
2022-07-28T02:12:06.224Z,20.40
2022-07-28T02:14:37.448Z,20.50
2022-07-28T02:17:14.447Z,20.40
2022-07-28T02:19:46.704Z,20.40
2022-07-28T02:22:16.502Z,20.40
2022-07-28T02:24:47.191Z,20.40
2022-07-28T02:27:23.371Z,20.40
2022-07-28T02:29:58.857Z,20.40
2022-07-28T02:32:40.850Z,20.40
2022-07-28T02:35:13.548Z,20.40
2022-07-28T02:37:51.494Z,20.30
2022-07-28T02:40:22.971Z,20.40
2022-07-28T02:42:53.790Z,20.30
2022-07-28T02:45:27.557Z,20.30
2022-07-28T02:48:02.819Z,20.30
2022-07-28T02:50:31.615Z,20.30
2022-07-28T02:53:15.540Z,20.30
2022-07-28T02:55:48.335Z,20.30
2022-07-28T02:58:18.068Z,20.30
2022-07-28T03:00:47.677Z,20.30
2022-07-28T03:03:18.756Z,20.30
2022-07-28T03:05:48.312Z,20.30
2022-07-28T03:08:18.635Z,20.30
2022-07-28T03:10:47.552Z,20.30
2022-07-28T03:13:16.214Z,20.30
2022-07-28T03:15:44.975Z,20.30
2022-07-28T03:18:13.762Z,20.30
2022-07-28T03:20:43.826Z,20.30
2022-07-28T03:23:12.509Z,20.30
2022-07-28T03:25:45.868Z,20.10
2022-07-28T03:28:19.590Z,20.30
2022-07-28T03:30:57.295Z,20.30
2022-07-28T03:33:26.488Z,20.30
2022-07-28T03:35:59.697Z,20.30
2022-07-28T03:38:35.490Z,20.40
2022-07-28T03:41:05.372Z,20.30
2022-07-28T03:43:35.661Z,20.30
2022-07-28T03:46:06.592Z,20.40
2022-07-28T03:48:37.483Z,20.40
2022-07-28T03:51:07.608Z,20.40
2022-07-28T03:53:36.549Z,20.30
2022-07-28T03:56:05.965Z,20.30
2022-07-28T03:58:34.748Z,20.30
2022-07-28T04:01:03.447Z,20.30
2022-07-28T04:03:36.609Z,20.30
2022-07-28T04:06:14.003Z,20.30
2022-07-28T04:08:43.225Z,20.30
2022-07-28T04:11:11.924Z,20.30
2022-07-28T04:13:40.687Z,20.30
2022-07-28T04:16:09.436Z,20.30
2022-07-28T04:18:38.207Z,20.30
2022-07-28T04:21:08.528Z,20.30
2022-07-28T04:23:38.569Z,20.30
2022-07-28T04:26:07.527Z,20.30
2022-07-28T04:28:36.183Z,20.30
2022-07-28T04:31:04.953Z,20.30
2022-07-28T04:33:33.686Z,20.30
2022-07-28T04:36:02.790Z,20.30
2022-07-28T04:38:31.500Z,20.30
2022-07-28T04:41:01.559Z,20.30
2022-07-28T04:43:30.243Z,20.30
2022-07-28T04:45:59.936Z,20.30
2022-07-28T04:48:28.573Z,20.30
2022-07-28T04:50:57.389Z,20.30
2022-07-28T04:53:26.013Z,20.30
2022-07-28T04:55:57.136Z,20.30
2022-07-28T04:58:27.878Z,20.30
2022-07-28T05:00:59.710Z,20.30
2022-07-28T05:03:31.610Z,20.30
2022-07-28T05:06:05.082Z,20.30
2022-07-28T05:08:33.737Z,20.30
2022-07-28T05:11:02.503Z,20.30
2022-07-28T05:13:34.247Z,20.40
2022-07-28T05:16:03.819Z,20.40
2022-07-28T05:18:32.585Z,20.40
2022-07-28T05:21:01.252Z,20.40
2022-07-28T05:23:30.025Z,20.40
2022-07-28T05:25:58.819Z,20.40
2022-07-28T05:28:27.526Z,20.50
2022-07-28T05:30:57.879Z,20.50
2022-07-28T05:33:29.042Z,20.50
2022-07-28T05:36:00.762Z,20.50
2022-07-28T05:38:30.429Z,20.50
2022-07-28T05:40:59.209Z,20.50
2022-07-28T05:43:27.807Z,20.60
2022-07-28T05:45:57.938Z,20.60
2022-07-28T05:48:26.686Z,20.60
2022-07-28T05:50:55.533Z,20.60
2022-07-28T05:53:24.701Z,20.70
2022-07-28T05:55:59.579Z,20.70
2022-07-28T05:58:30.583Z,20.70
2022-07-28T06:01:02.611Z,20.70
2022-07-28T06:03:38.447Z,20.80
2022-07-28T06:06:16.105Z,20.80
2022-07-28T06:08:47.805Z,20.80
2022-07-28T06:11:22.846Z,20.80
2022-07-28T06:13:53.132Z,20.80
2022-07-28T06:16:24.004Z,20.90
2022-07-28T06:18:53.255Z,20.90
2022-07-28T06:21:24.495Z,20.90
2022-07-28T06:23:53.293Z,21.00
2022-07-28T06:26:23.837Z,21.00
2022-07-28T06:28:53.189Z,21.00
2022-07-28T06:31:23.277Z,21.00
2022-07-28T06:33:51.965Z,21.10
2022-07-28T06:36:20.957Z,21.10
2022-07-28T06:38:49.696Z,21.10
2022-07-28T06:41:18.420Z,21.10
2022-07-28T06:43:47.081Z,21.20
2022-07-28T06:46:19.413Z,21.20
2022-07-28T06:48:49.735Z,21.20
2022-07-28T06:51:20.198Z,21.30
2022-07-28T06:53:49.499Z,21.30
2022-07-28T06:56:21.603Z,21.30
2022-07-28T06:58:52.255Z,21.40
2022-07-28T07:01:21.118Z,21.50
2022-07-28T07:03:51.411Z,21.50
2022-07-28T07:06:20.178Z,21.60
2022-07-28T07:08:48.964Z,21.70
2022-07-28T07:11:17.686Z,21.80
2022-07-28T07:13:46.390Z,21.80
2022-07-28T07:16:15.095Z,21.90
2022-07-28T07:18:43.816Z,22.00
2022-07-28T07:21:13.874Z,22.00
2022-07-28T07:23:42.545Z,22.10
2022-07-28T07:26:11.194Z,22.20
2022-07-28T07:28:41.843Z,22.30
2022-07-28T07:31:10.555Z,22.30
2022-07-28T07:33:39.255Z,22.40
2022-07-28T07:36:08.404Z,22.40
2022-07-28T07:38:38.864Z,22.50
2022-07-28T07:41:07.771Z,22.50
2022-07-28T07:43:36.479Z,22.60
2022-07-28T07:46:05.274Z,22.60
2022-07-28T07:48:34.158Z,22.70
2022-07-28T07:51:02.868Z,22.70
2022-07-28T07:53:31.586Z,22.80
2022-07-28T07:56:01.778Z,22.80
2022-07-28T07:58:30.620Z,22.80
2022-07-28T08:00:59.255Z,22.90
2022-07-28T08:03:27.889Z,22.90
2022-07-28T08:05:57.766Z,22.90
2022-07-28T08:08:26.490Z,23.00
2022-07-28T08:10:55.156Z,23.00
2022-07-28T08:13:25.240Z,23.00
2022-07-28T08:15:54.151Z,23.10
2022-07-28T08:18:22.934Z,23.10
2022-07-28T08:20:51.576Z,23.10
2022-07-28T08:23:25.835Z,23.20
2022-07-28T08:25:55.224Z,23.20
2022-07-28T08:28:25.314Z,23.30
2022-07-28T08:30:54.055Z,23.30
2022-07-28T08:33:22.772Z,23.40
2022-07-28T08:35:51.737Z,23.40
2022-07-28T08:38:20.440Z,23.50
2022-07-28T08:40:52.978Z,23.50
2022-07-28T08:43:35.352Z,23.50
2022-07-28T08:46:07.185Z,23.60
2022-07-28T08:48:38.408Z,23.70
2022-07-28T08:51:11.199Z,23.80
2022-07-28T08:53:42.172Z,23.80
2022-07-28T08:56:16.303Z,23.90
2022-07-28T08:58:46.351Z,24.00
2022-07-28T09:01:15.067Z,24.10
2022-07-28T09:03:44.272Z,24.10
2022-07-28T09:06:13.304Z,24.20
2022-07-28T09:08:43.636Z,24.30
2022-07-28T09:11:12.497Z,24.40
2022-07-28T09:13:41.236Z,24.50
2022-07-28T09:16:11.727Z,24.60
2022-07-28T09:18:40.895Z,24.70
2022-07-28T09:21:09.606Z,24.80
2022-07-28T09:23:46.257Z,24.90
2022-07-28T09:26:15.330Z,25.00
2022-07-28T09:28:52.864Z,25.00
2022-07-28T09:31:24.832Z,25.10
2022-07-28T09:34:00.930Z,25.20
2022-07-28T09:36:30.905Z,25.20
2022-07-28T09:38:59.869Z,25.30
2022-07-28T09:41:28.561Z,25.40
2022-07-28T09:43:57.357Z,25.50
2022-07-28T09:46:30.695Z,25.50
2022-07-28T09:49:02.532Z,25.60
2022-07-28T09:51:33.538Z,25.70
2022-07-28T09:54:12.724Z,25.70
2022-07-28T09:56:44.554Z,25.80
2022-07-28T09:59:15.097Z,25.90
2022-07-28T10:01:58.335Z,26.00
2022-07-28T10:04:37.927Z,26.10
2022-07-28T10:07:10.024Z,26.10
2022-07-28T10:09:40.147Z,26.20
2022-07-28T10:12:20.701Z,26.30
2022-07-28T10:14:51.994Z,26.40
2022-07-28T10:17:27.903Z,26.40
2022-07-28T10:19:58.887Z,26.50
2022-07-28T10:22:32.145Z,26.50
2022-07-28T10:25:04.135Z,26.60
2022-07-28T10:27:34.479Z,26.70
2022-07-28T10:30:06.867Z,26.70
2022-07-28T10:32:42.791Z,26.80
2022-07-28T10:35:14.069Z,26.80
2022-07-28T10:37:53.242Z,26.90
2022-07-28T10:40:29.956Z,26.90
2022-07-28T10:42:58.824Z,27.00
2022-07-28T10:45:47.865Z,27.00
2022-07-28T10:48:20.584Z,27.10
2022-07-28T10:50:53.496Z,27.10
2022-07-28T10:53:35.392Z,27.10
2022-07-28T10:56:14.525Z,27.10
2022-07-28T10:59:04.926Z,27.10
2022-07-28T11:01:48.255Z,27.20
2022-07-28T11:05:01.915Z,27.20
2022-07-28T11:07:40.830Z,27.20
2022-07-28T11:10:18.022Z,27.20
2022-07-28T11:12:48.263Z,27.20
2022-07-28T11:15:35.801Z,27.20
2022-07-28T11:18:09.839Z,27.30
2022-07-28T11:21:11.600Z,27.30
2022-07-28T11:23:57.498Z,27.30
2022-07-28T11:26:39.217Z,27.40
2022-07-28T11:29:23.580Z,27.40
2022-07-28T11:32:07.727Z,27.40
2022-07-28T11:35:10.254Z,27.40
2022-07-28T11:38:12.954Z,27.50
2022-07-28T11:40:44.467Z,27.50
2022-07-28T11:43:38.888Z,27.60
2022-07-28T11:46:25.372Z,27.60
2022-07-28T11:49:29.720Z,27.70
2022-07-28T11:52:24.397Z,27.80
2022-07-28T11:54:58.526Z,27.90
2022-07-28T11:57:29.438Z,27.90
2022-07-28T12:00:04.143Z,28.00
2022-07-28T12:02:36.239Z,28.10
2022-07-28T12:05:14.524Z,28.10
2022-07-28T12:07:50.178Z,28.20
2022-07-28T12:10:54.040Z,28.20
2022-07-28T12:13:29.196Z,28.30
2022-07-28T12:15:58.296Z,28.30
2022-07-28T12:18:29.201Z,28.30
2022-07-28T12:21:04.587Z,28.30
2022-07-28T12:23:49.551Z,28.40
2022-07-28T12:26:41.038Z,28.40
2022-07-28T12:29:13.370Z,28.50
2022-07-28T12:31:55.613Z,28.50
2022-07-28T12:34:28.642Z,28.60
2022-07-28T12:37:02.197Z,28.60
2022-07-28T12:39:32.534Z,28.60
2022-07-28T12:42:05.392Z,28.70
2022-07-28T12:44:39.086Z,28.70
2022-07-28T12:47:10.914Z,28.80
2022-07-28T12:49:41.179Z,28.80
2022-07-28T12:52:18.118Z,28.90
2022-07-28T12:54:54.384Z,28.90
2022-07-28T12:57:49.859Z,29.00
2022-07-28T13:00:24.650Z,29.00
2022-07-28T13:02:57.655Z,29.10
2022-07-28T13:05:54.804Z,29.10
2022-07-28T13:08:24.378Z,29.10
2022-07-28T13:10:57.433Z,29.20
2022-07-28T13:13:29.371Z,29.20
2022-07-28T13:16:15.695Z,29.20
2022-07-28T13:18:46.498Z,29.30
2022-07-28T13:21:16.723Z,29.30
2022-07-28T13:23:45.866Z,29.40
2022-07-28T13:26:14.569Z,29.40
2022-07-28T13:28:44.623Z,29.40
2022-07-28T13:31:13.506Z,29.50
2022-07-28T13:33:42.250Z,29.50
2022-07-28T13:36:11.124Z,29.50
2022-07-28T13:38:40.477Z,29.50
2022-07-28T13:41:09.181Z,29.60
2022-07-28T13:43:38.061Z,29.60
2022-07-28T13:46:08.593Z,29.70
2022-07-28T13:48:57.618Z,29.70
2022-07-28T13:51:26.889Z,29.80
2022-07-28T13:53:56.468Z,29.80
2022-07-28T13:56:25.741Z,29.80
2022-07-28T13:58:54.408Z,29.80
2022-07-28T14:01:25.326Z,29.80
2022-07-28T14:03:58.365Z,29.80
2022-07-28T14:06:27.651Z,29.80
2022-07-28T14:08:56.889Z,29.80
2022-07-28T14:11:25.796Z,29.80
2022-07-28T14:13:54.831Z,29.80
2022-07-28T14:16:25.699Z,29.80
2022-07-28T14:18:54.873Z,29.80
2022-07-28T14:21:23.786Z,29.70
2022-07-28T14:23:52.532Z,29.80
2022-07-28T14:26:35.594Z,29.70
2022-07-28T14:29:11.358Z,29.80
2022-07-28T14:31:41.995Z,29.70
2022-07-28T14:34:10.942Z,29.70
2022-07-28T14:36:40.043Z,29.70
2022-07-28T14:39:12.395Z,29.70
2022-07-28T14:41:42.731Z,29.60
2022-07-28T14:44:15.384Z,29.60
2022-07-28T14:46:45.801Z,29.60
2022-07-28T14:49:14.599Z,29.60
2022-07-28T14:51:44.900Z,29.60
2022-07-28T14:54:14.108Z,29.50
2022-07-28T14:56:42.941Z,29.50
2022-07-28T14:59:11.759Z,29.50
2022-07-28T15:01:40.538Z,29.50
2022-07-28T15:04:12.677Z,29.50
2022-07-28T15:06:41.958Z,29.40
2022-07-28T15:09:10.742Z,29.40
2022-07-28T15:11:41.257Z,29.40
2022-07-28T15:14:10.072Z,29.40
2022-07-28T15:16:40.061Z,29.30
2022-07-28T15:19:10.636Z,29.30
2022-07-28T15:21:40.708Z,29.30
2022-07-28T15:24:10.681Z,29.30
2022-07-28T15:26:39.432Z,29.30
2022-07-28T15:29:08.857Z,29.20
2022-07-28T15:31:37.860Z,29.30
2022-07-28T15:34:09.738Z,29.30
2022-07-28T15:36:39.175Z,29.30
2022-07-28T15:39:09.362Z,29.30
2022-07-28T15:41:38.071Z,29.30
2022-07-28T15:44:07.922Z,29.30
2022-07-28T15:46:36.638Z,29.30
2022-07-28T15:49:10.503Z,29.30
2022-07-28T15:51:40.919Z,29.30
2022-07-28T15:54:10.257Z,29.20
2022-07-28T15:56:39.162Z,29.20
2022-07-28T15:59:09.235Z,29.20
2022-07-28T16:01:44.999Z,29.20
2022-07-28T16:04:16.206Z,29.30
2022-07-28T16:07:02.629Z,29.30
2022-07-28T16:09:45.574Z,29.30
2022-07-28T16:12:16.422Z,29.30
2022-07-28T16:14:45.272Z,29.30
2022-07-28T16:17:14.134Z,29.30
2022-07-28T16:19:50.009Z,29.40
2022-07-28T16:22:20.120Z,29.30
2022-07-28T16:24:50.946Z,29.30
2022-07-28T16:27:19.757Z,29.30
2022-07-28T16:29:49.570Z,29.40
2022-07-28T16:32:18.414Z,29.40
2022-07-28T16:34:49.812Z,29.40
2022-07-28T16:37:19.844Z,29.40
2022-07-28T16:39:49.650Z,29.40
2022-07-28T16:42:18.613Z,29.40
2022-07-28T16:44:47.986Z,29.40
2022-07-28T16:47:17.199Z,29.50
2022-07-28T16:49:46.456Z,29.50
2022-07-28T16:52:16.972Z,29.50
2022-07-28T16:54:45.916Z,29.50
2022-07-28T16:57:16.484Z,29.50
2022-07-28T16:59:48.515Z,29.50
2022-07-28T17:02:19.229Z,29.50
2022-07-28T17:04:48.921Z,29.50
2022-07-28T17:07:19.626Z,29.50
2022-07-28T17:09:48.335Z,29.40
2022-07-28T17:12:17.019Z,29.40
2022-07-28T17:14:45.794Z,29.40
2022-07-28T17:17:14.509Z,29.40
2022-07-28T17:19:46.540Z,29.30
2022-07-28T17:22:16.384Z,29.30
2022-07-28T17:24:48.431Z,29.30
2022-07-28T17:27:37.871Z,29.30
2022-07-28T17:30:07.426Z,29.20
2022-07-28T17:32:36.172Z,29.20
2022-07-28T17:35:05.514Z,29.10
2022-07-28T17:37:34.235Z,29.20
2022-07-28T17:40:04.832Z,29.10
2022-07-28T17:42:34.366Z,29.10
2022-07-28T17:45:03.085Z,29.10
2022-07-28T17:47:35.986Z,29.10
2022-07-28T17:50:07.376Z,29.00
2022-07-28T17:52:36.317Z,29.00
2022-07-28T17:55:24.921Z,29.00
2022-07-28T17:57:56.334Z,29.00
2022-07-28T18:00:25.119Z,28.90
2022-07-28T18:02:53.831Z,28.90
2022-07-28T18:05:22.567Z,28.90
2022-07-28T18:07:54.798Z,28.90
2022-07-28T18:10:27.695Z,28.80
2022-07-28T18:12:56.337Z,28.80
2022-07-28T18:15:25.941Z,28.80
2022-07-28T18:17:56.106Z,28.70
2022-07-28T18:20:25.605Z,28.70
2022-07-28T18:22:54.593Z,28.60
2022-07-28T18:25:23.278Z,28.60
2022-07-28T18:27:53.883Z,28.60
2022-07-28T18:30:23.236Z,28.50
2022-07-28T18:32:52.627Z,28.50
2022-07-28T18:35:22.567Z,28.50
2022-07-28T18:37:51.923Z,28.40
2022-07-28T18:40:21.956Z,28.40
2022-07-28T18:42:52.940Z,28.30
2022-07-28T18:45:21.891Z,28.30
2022-07-28T18:47:50.552Z,28.30
2022-07-28T18:50:30.660Z,28.20
2022-07-28T18:53:00.972Z,28.20
2022-07-28T18:55:29.825Z,28.10
2022-07-28T18:57:59.850Z,28.10
2022-07-28T19:00:28.863Z,28.00
2022-07-28T19:02:57.746Z,28.00
2022-07-28T19:05:26.782Z,28.00
2022-07-28T19:08:05.516Z,27.90
2022-07-28T19:10:34.337Z,27.90
2022-07-28T19:13:04.710Z,27.80
2022-07-28T19:15:38.160Z,27.80
2022-07-28T19:18:10.536Z,27.70
2022-07-28T19:20:40.885Z,27.70
2022-07-28T19:23:09.602Z,27.70
2022-07-28T19:25:39.833Z,27.60
2022-07-28T19:28:09.994Z,27.60
2022-07-28T19:30:38.780Z,27.50
2022-07-28T19:33:07.461Z,27.50
2022-07-28T19:35:36.331Z,27.50
2022-07-28T19:38:05.026Z,27.50
2022-07-28T19:40:33.777Z,27.40
2022-07-28T19:43:08.247Z,27.40
2022-07-28T19:45:42.398Z,27.30
2022-07-28T19:48:18.201Z,27.30
2022-07-28T19:50:53.686Z,27.30
2022-07-28T19:53:32.380Z,27.20
2022-07-28T19:56:18.042Z,27.20
2022-07-28T19:58:54.930Z,27.20
2022-07-28T20:01:39.021Z,27.10
2022-07-28T20:04:24.613Z,27.10
2022-07-28T20:07:15.481Z,27.00
2022-07-28T20:10:04.123Z,27.00
2022-07-28T20:12:43.403Z,27.00
2022-07-28T20:15:25.865Z,27.00
2022-07-28T20:18:07.911Z,26.90
2022-07-28T20:20:50.668Z,26.90
2022-07-28T20:23:33.083Z,26.90
2022-07-28T20:26:27.177Z,26.80
2022-07-28T20:29:10.590Z,26.80
2022-07-28T20:32:09.920Z,26.80
2022-07-28T20:35:07.374Z,26.70
2022-07-28T20:38:14.713Z,26.70
2022-07-28T20:40:52.589Z,26.60
2022-07-28T20:43:23.807Z,26.60
2022-07-28T20:46:10.423Z,26.50
2022-07-28T20:48:54.467Z,26.50
2022-07-28T20:51:40.089Z,26.40
2022-07-28T20:54:35.570Z,26.40
2022-07-28T20:57:19.396Z,26.40
2022-07-28T20:59:53.816Z,26.30
2022-07-28T21:02:24.827Z,26.30
2022-07-28T21:04:56.321Z,26.20
2022-07-28T21:08:00.682Z,26.20
2022-07-28T21:10:38.442Z,26.10
2022-07-28T21:13:22.422Z,26.10
2022-07-28T21:16:00.323Z,26.10
2022-07-28T21:18:32.837Z,26.00
2022-07-28T21:21:01.856Z,26.00
2022-07-28T21:23:31.952Z,25.90
2022-07-28T21:26:00.667Z,25.90
2022-07-28T21:28:46.653Z,25.90
2022-07-28T21:31:15.304Z,25.80
2022-07-28T21:33:43.945Z,25.80
2022-07-28T21:36:12.598Z,25.80
2022-07-28T21:38:42.883Z,25.70
2022-07-28T21:41:11.694Z,25.70
2022-07-28T21:43:40.585Z,25.60
2022-07-28T21:46:09.355Z,25.60
2022-07-28T21:48:38.071Z,25.60
2022-07-28T21:51:18.217Z,25.60
2022-07-28T21:53:52.924Z,25.50
2022-07-28T21:56:21.793Z,25.50
2022-07-28T21:58:51.125Z,25.50
2022-07-28T22:01:19.950Z,25.50
2022-07-28T22:03:48.711Z,25.50
2022-07-28T22:06:17.503Z,25.40
2022-07-28T22:08:46.225Z,25.40
2022-07-28T22:11:16.310Z,25.40
2022-07-28T22:13:45.138Z,25.40
2022-07-28T22:16:13.863Z,25.40
2022-07-28T22:18:42.725Z,25.30
2022-07-28T22:21:11.441Z,25.30
2022-07-28T22:23:42.081Z,25.30
2022-07-28T22:26:10.823Z,25.30
2022-07-28T22:28:40.873Z,25.30
2022-07-28T22:31:10.339Z,25.30
2022-07-28T22:33:39.888Z,25.20
2022-07-28T22:36:09.651Z,25.20
2022-07-28T22:38:38.711Z,25.20
2022-07-28T22:41:07.396Z,25.20
2022-07-28T22:43:36.111Z,25.20
2022-07-28T22:46:06.225Z,25.20
2022-07-28T22:48:35.009Z,25.20
2022-07-28T22:51:03.835Z,25.20
2022-07-28T22:53:32.524Z,25.20
2022-07-28T22:56:01.387Z,25.20
2022-07-28T22:58:30.030Z,25.20
2022-07-28T23:00:59.408Z,25.20
2022-07-28T23:03:31.073Z,25.10
2022-07-28T23:06:00.707Z,25.10
2022-07-28T23:08:29.789Z,25.10
2022-07-28T23:10:58.535Z,25.10
2022-07-28T23:13:27.211Z,25.10
2022-07-28T23:15:56.101Z,25.10
2022-07-28T23:18:24.786Z,25.10
2022-07-28T23:20:55.029Z,25.00
2022-07-28T23:23:23.844Z,25.00
2022-07-28T23:25:52.561Z,25.00
2022-07-28T23:28:21.224Z,25.00
2022-07-28T23:30:52.068Z,25.00
2022-07-28T23:33:56.813Z,25.00
2022-07-28T23:36:25.983Z,25.00
2022-07-28T23:38:56.997Z,25.00
2022-07-28T23:41:26.389Z,24.90
2022-07-28T23:43:55.410Z,24.90
2022-07-28T23:46:24.479Z,24.90
2022-07-28T23:48:53.248Z,24.90
2022-07-28T23:51:47.195Z,24.90
2022-07-28T23:54:14.287Z,24.90
2022-07-28T23:56:43.878Z,24.80
2022-07-28T23:59:14.347Z,24.80
